x

West Santa Barbara 38 Nm West Of Santa Barbara, Ca (46054) Wave Buoy

12:50 - Wed 29th Jul 2015 All times are PDT. -7 hours from GMT.

  • Sig Wave height 4.6ft
  • Swell Direction
  • Peak Period 16s
  • Average Period 7s
  • Wind
    9mph
  • Sea Temp 62°f
  • Ar Temp 62°f
  • Sea Pressure 1014.5mb
  • West Santa Barbara  38 Nm West Of Santa Barbara, Ca
  • West Santa Barbara  38 Nm West Of Santa Barbara, Ca

More Historic Weather Station data

Upgrade to MSW Pro to gain access to the past 30 days of data for over 8000 Wavebouys and Weather Stations around the globe.

Join Pro

Comparision Forecast

View Surf forecast
   
Qua 07/29 12:50 4.5ft 16s 7s 9
mph
1014.5mb 62f 62f
11:50 4.5ft 10s 7s 7 9 mph 1014.4mb 62f 61f
10:50 4.5ft 16s 7s 9 11 mph 1014mb 61f 60f
8:50 5ft 16s 8s 11
mph
1013.5mb 61f 59f
7:50 5ft 16s 7s 11 13 mph 1013mb 61f 60f
6:50 4.5ft 16s 7s 11 13 mph 1012.8mb 61f 59f
5:50 5ft 16s 7s 11 13 mph 1012.4mb 61f 60f
4:50 5ft 16s 7s 11 13 mph 1012.2mb 61f 59f
3:50 4.5ft 16s 7s 11 13 mph 1011.9mb 61f 59f
2:50 5ft 16s 6s 11 13 mph 1012.2mb 59f 59f
1:50 5.5ft 16s 6s 13 16 mph 1012mb 59f 59f
12:50 5.5ft 16s 6s 16 18 mph 1011.9mb 59f 59f
Ter 07/28 11:50 5.5ft 16s 6s 20 22 mph 1011.6mb 60f 59f
10:50 5.5ft 10s 6s 20 25 mph 1011.4mb 60f 60f
9:50 6ft 10s 6s 22 25 mph 1010.9mb 60f 60f
8:50 5.5ft 10s 6s 20 25 mph 1010.6mb 61f 60f
7:50 5.5ft 16s 7s 18 22 mph 1010.4mb 61f 60f
6:50 5.5ft 9s 7s 18 22 mph 1010.4mb 62f 61f
5:50 5.5ft 16s 7s 18 20 mph 1010.7mb 63f 61f
4:50 5.5ft 10s 7s 13 18 mph 1011mb 63f 61f
3:50 5.5ft 16s 7s 11 16 mph 1011.6mb 64f 62f
2:50 6ft 9s 7s 9
mph
1012.2mb 64f 62f
1:50 6ft 8s 7s 4 9 mph 1012.6mb 64f 62f
12:50 6.5ft 17s 7s 4 7 mph 1012.9mb 64f 61f
11:50 6ft 8s 7s 4 7 mph 1013mb 64f 60f
10:50 7ft 9s 8s 4
mph
1012.9mb 63f 59f
9:50 6.5ft 9s 7s 7
mph
1012.9mb 60f 58f
8:50 7ft 9s 8s 7 9 mph 1012.6mb 60f 58f
7:50 6ft 9s 7s 9 11 mph 1012.3mb 60f 58f
6:50 6.5ft 9s 8s 11 13 mph 1011.8mb 60f 58f
5:50 7ft 17s 7s 11 16 mph 1011.4mb 60f 59f
4:50 6ft 10s 7s 11 16 mph 1011mb 60f 59f
3:50 6ft 9s 7s 16 18 mph 1010.9mb 60f 60f
2:50 6ft 9s 7s 16 18 mph 1011.2mb 60f 60f
1:50 6.5ft 8s 7s 16 18 mph 1011.4mb 60f 60f
12:50 7ft 10s 7s 13 16 mph 1011.8mb 60f 60f
Seg 07/27 11:50 6ft 17s 7s 16 18 mph 1011.9mb 61f 61f
10:50 7ft 9s 7s 20 25 mph 1011.9mb 61f 61f
9:50 6.5ft 10s 6s 20 25 mph 1012.3mb 61f 61f
8:50 7.5ft 9s 6s 22 27 mph 1011.7mb 61f 61f
7:50 6.5ft 7s 6s 25 29 mph 1011mb 61f 61f
6:50 6.5ft 9s 6s 25 29 mph 1010.8mb 62f 61f
5:50 7ft 7s 6s 27 31 mph 1010.8mb 63f 61f
4:50 6.5ft 8s 6s 27 31 mph 1010.8mb 63f 61f
3:50 6.5ft 8s 6s 25 31 mph 1011.8mb 62f 61f
2:50 6ft 9s 6s 25 29 mph 1012.3mb 62f 61f
1:50 6.5ft 8s 7s 22 25 mph 1013mb 62f 61f
12:50 6ft 10s 7s 18 20 mph 1013.8mb 62f 61f
11:50 5.5ft 8s 7s 16 18 mph 1014.2mb 62f 61f
10:50 6ft 8s 7s 13 18 mph 1014.2mb 62f 60f
9:50 6ft 8s 7s 16 18 mph 1014mb 62f 60f
8:50 5.5ft 10s 6s 18 20 mph 1013.6mb 63f 59f
7:50 5.5ft 8s 6s 16 18 mph 1013.3mb 63f 58f
6:50 6ft 8s 6s 16 18 mph 1012.7mb 63f 59f
5:50 6ft 8s 6s 20 25 mph 1012mb 63f 61f
4:50 5ft 8s 6s 18 25 mph 1011.9mb 63f 61f
3:50 6ft 8s 6s 20 25 mph 1011.5mb 63f 61f
2:50 5.5ft 7s 6s 22 27 mph 1011.6mb 63f 61f
1:50 5.5ft 8s 5s 25 29 mph 1011.8mb 64f 61f
12:50 6ft 7s 5s 25 29 mph 1012.1mb 64f 62f
Dom 07/26 11:50 6ft 6s 5s 29 34 mph 1012mb 64f 62f
10:50 6ft 7s 5s 27 34 mph 1012.3mb 64f 62f
9:50 5.5ft 6s 5s 27 31 mph 1012.3mb 64f 61f
8:50 5.5ft 6s 5s 25 31 mph 1012.1mb 64f 61f
7:50 5.5ft 5s 5s 27 31 mph 1012mb 65f 62f
6:50 5ft 6s 5s 27 34 mph 1012.2mb 65f 62f
5:50 5ft 6s 5s 25 31 mph 1012.4mb 65f 63f
4:50 5ft 7s 5s 27 31 mph 1012.7mb 65f 63f
3:50 5.5ft 7s 5s 25 29 mph 1013.2mb 65f 63f
2:50 5ft 6s 5s 22 27 mph 1013.7mb 65f 62f
1:50 5ft 13s 5s 22 27 mph 1014.2mb 65f 62f
12:50 5ft 7s 5s 22 25 mph 1014.6mb 64f 62f
11:50 5.5ft 11s 6s 20 25 mph 1014.8mb 64f 61f
10:50 5.5ft 11s 6s 25 29 mph 1014.3mb 64f 61f
9:50 5.5ft 6s 5s 22 29 mph 1014.3mb 64f 61f
8:50 5.5ft 8s 6s 25 31 mph 1013.8mb 65f 60f
7:50 6ft 7s 6s 27 34 mph 1013.3mb 65f 60f
6:50 6ft 8s 5s 25 29 mph 1013mb 65f 60f
5:50 6ft 7s 6s 25 29 mph 1012.6mb 65f 61f
4:50 6.5ft 7s 6s 27 31 mph 1012.2mb 65f 61f
3:50 7ft 7s 6s 27 34 mph 1012.3mb 65f 60f
2:50 6ft 8s 6s 27 34 mph 1012.5mb 65f 61f
1:50 6.5ft 7s 6s 29 34 mph 1012.8mb 64f 61f
12:50 7ft 7s 6s 29 36 mph 1013.1mb 64f 60f
Sáb 07/25 11:50 7ft 7s 6s 29 36 mph 1013.2mb 64f 61f
10:50 7ft 7s 6s 29 34 mph 1013.5mb 64f 61f
9:50 6.5ft 7s 6s 29 34 mph 1013.6mb 64f 62f